Time;durP1;ratioP1;P1;durP2;ratioP2;P2;SDS_P1;SDS_P2;PMS_P1;PMS_P2;Temp;Humidity;BMP_temperature;BMP_pressure;BME280_temperature;BME280_humidity;BME280_pressure;Samples;Min_cycle;Max_cycle;Signal;HPM_P1;HPM_P2
2023/01/07 00:01:47;;;;;;;2.90;0.70;;;11.60;79.30;;;;;;5051823;28;20592;-66
2023/01/07 00:04:16;;;;;;;3.00;0.80;;;11.60;79.30;;;;;;5050495;28;21069;-66
2023/01/07 00:06:46;;;;;;;4.10;1.30;;;11.60;79.30;;;;;;5051779;28;20454;-66
2023/01/07 00:09:16;;;;;;;3.20;0.87;;;11.60;79.30;;;;;;5050712;28;20473;-66
2023/01/07 00:11:44;;;;;;;3.33;0.80;;;11.60;79.40;;;;;;5044599;28;20860;-66
2023/01/07 00:14:13;;;;;;;3.07;0.90;;;11.60;79.30;;;;;;5043746;28;20539;-66
2023/01/07 00:16:42;;;;;;;3.50;0.90;;;11.60;79.30;;;;;;5044041;28;20470;-66
2023/01/07 00:19:13;;;;;;;3.60;1.00;;;11.60;79.30;;;;;;5044546;28;20459;-65
2023/01/07 00:21:41;;;;;;;3.57;1.27;;;11.60;79.20;;;;;;5044748;28;20671;-66
2023/01/07 00:24:11;;;;;;;3.03;1.00;;;11.60;79.20;;;;;;5045850;28;20474;-64
2023/01/07 00:26:39;;;;;;;3.60;1.20;;;11.60;79.20;;;;;;5045553;28;20509;-66
2023/01/07 00:29:08;;;;;;;3.40;1.13;;;11.60;79.20;;;;;;5043721;28;20471;-66
2023/01/07 00:31:39;;;;;;;3.80;1.33;;;11.60;79.30;;;;;;5059293;28;20455;-66
2023/01/07 00:34:09;;;;;;;3.60;1.33;;;11.60;79.20;;;;;;5043662;28;21056;-66
2023/01/07 00:36:40;;;;;;;4.90;1.70;;;11.60;79.20;;;;;;5045603;28;20466;-66
2023/01/07 00:39:11;;;;;;;3.60;1.60;;;11.60;79.10;;;;;;5043470;28;20519;-66
2023/01/07 00:41:39;;;;;;;3.80;1.53;;;11.60;79.10;;;;;;5060122;28;21484;-66
2023/01/07 00:44:07;;;;;;;4.03;1.43;;;11.60;79.20;;;;;;5044488;28;20474;-66
2023/01/07 00:46:35;;;;;;;5.40;1.87;;;11.60;79.30;;;;;;5042371;28;20459;-66
2023/01/07 00:49:03;;;;;;;3.37;1.40;;;11.60;79.20;;;;;;5045394;28;20467;-66
2023/01/07 00:51:32;;;;;;;4.20;1.97;;;11.60;79.20;;;;;;5041741;28;20462;-66
2023/01/07 00:54:00;;;;;;;4.73;1.90;;;11.60;79.20;;;;;;5041885;28;21127;-66
2023/01/07 00:56:28;;;;;;;8.30;2.20;;;11.50;79.20;;;;;;5060001;28;21270;-66
2023/01/07 00:58:56;;;;;;;4.13;1.60;;;11.50;79.30;;;;;;5063100;28;21168;-65
2023/01/07 01:01:24;;;;;;;4.80;1.50;;;11.60;79.30;;;;;;5058400;28;20534;-66
2023/01/07 01:03:52;;;;;;;4.60;1.97;;;11.60;79.30;;;;;;5042876;28;20471;-65
2023/01/07 01:06:20;;;;;;;4.30;1.60;;;11.50;79.30;;;;;;5044624;28;20454;-65
2023/01/07 01:08:51;;;;;;;5.23;2.17;;;11.50;79.30;;;;;;5042172;28;20533;-66
2023/01/07 01:11:20;;;;;;;4.80;1.90;;;11.50;79.30;;;;;;5042568;28;20455;-66
2023/01/07 01:13:47;;;;;;;4.50;1.97;;;11.50;79.30;;;;;;5042903;28;20471;-66
2023/01/07 01:16:18;;;;;;;3.90;1.90;;;11.50;79.30;;;;;;5061096;28;20470;-65
2023/01/07 01:18:46;;;;;;;3.90;1.70;;;11.50;79.40;;;;;;5057792;28;20463;-65
2023/01/07 01:21:15;;;;;;;7.43;2.27;;;11.50;79.50;;;;;;5042675;28;20475;-67
2023/01/07 01:23:44;;;;;;;3.80;1.70;;;11.50;79.50;;;;;;5042026;28;20452;-64
2023/01/07 01:26:15;;;;;;;3.60;1.77;;;11.50;79.50;;;;;;5043845;28;20945;-66
2023/01/07 01:28:44;;;;;;;3.97;1.87;;;11.50;79.50;;;;;;5063472;28;20459;-65
2023/01/07 01:31:14;;;;;;;4.00;1.90;;;11.50;79.50;;;;;;5042221;28;20474;-66
2023/01/07 01:33:53;;;;;;;6.47;2.23;;;11.50;79.50;;;;;;5042187;28;20987;-65
2023/01/07 01:36:21;;;;;;;3.93;1.70;;;11.50;79.50;;;;;;5042967;28;20456;-66
2023/01/07 01:38:51;;;;;;;5.67;2.67;;;11.50;79.50;;;;;;5055299;28;20549;-66
2023/01/07 01:41:20;;;;;;;5.80;1.93;;;11.40;79.60;;;;;;5064719;28;20459;-66
2023/01/07 01:43:51;;;;;;;5.30;2.30;;;11.40;79.60;;;;;;5041044;28;20537;-66
2023/01/07 01:46:25;;;;;;;4.30;2.20;;;11.40;79.70;;;;;;5065601;28;21289;-66
2023/01/07 01:48:55;;;;;;;5.20;2.67;;;11.40;79.70;;;;;;5042496;28;20486;-66
2023/01/07 01:51:27;;;;;;;5.43;2.40;;;11.40;79.70;;;;;;5058494;28;21321;-65
2023/01/07 01:53:56;;;;;;;4.87;2.33;;;11.40;79.70;;;;;;5040529;28;20475;-65
2023/01/07 01:56:28;;;;;;;4.63;2.30;;;11.40;79.70;;;;;;5041678;28;20467;-66
2023/01/07 01:58:59;;;;;;;5.73;2.73;;;11.40;79.70;;;;;;5058600;28;20546;-66
2023/01/07 02:01:27;;;;;;;5.20;2.30;;;11.40;79.80;;;;;;5040272;28;20968;-66
2023/01/07 02:03:57;;;;;;;7.50;2.43;;;11.40;79.80;;;;;;5042123;28;20465;-66
2023/01/07 02:06:31;;;;;;;5.43;2.40;;;11.40;79.80;;;;;;5042754;28;20462;-66
2023/01/07 02:08:59;;;;;;;5.60;3.03;;;11.40;79.80;;;;;;5042411;28;20490;-68
2023/01/07 02:11:47;;;;;;;5.53;2.80;;;11.40;79.90;;;;;;5043917;28;20564;-65
2023/01/07 02:14:41;;;;;;;4.53;2.20;;;11.40;79.90;;;;;;5040900;28;20502;-66
2023/01/07 02:17:18;;;;;;;5.37;2.30;;;11.40;80.00;;;;;;5040968;28;20551;-66
2023/01/07 02:20:13;;;;;;;5.50;2.90;;;11.40;79.90;;;;;;5042119;28;20458;-65
2023/01/07 02:23:05;;;;;;;5.63;2.80;;;11.40;80.00;;;;;;5044567;28;20496;-66
2023/01/07 02:25:53;;;;;;;7.77;2.43;;;11.40;80.10;;;;;;5041787;28;20555;-66
2023/01/07 02:28:48;;;;;;;6.63;3.27;;;11.40;80.20;;;;;;5040366;28;20467;-65
2023/01/07 02:31:33;;;;;;;5.60;2.50;;;11.40;80.20;;;;;;5039599;28;20549;-65
2023/01/07 02:34:10;;;;;;;5.27;2.80;;;11.40;80.20;;;;;;5038909;28;20489;-66
2023/01/07 02:36:50;;;;;;;5.53;2.37;;;11.40;80.20;;;;;;5039958;28;20501;-64
2023/01/07 02:39:32;;;;;;;5.13;2.17;;;11.30;80.30;;;;;;5041067;28;20461;-66
2023/01/07 02:42:07;;;;;;;5.63;2.60;;;11.30;80.30;;;;;;5040641;28;20544;-66
2023/01/07 02:44:42;;;;;;;8.00;3.70;;;11.30;80.30;;;;;;5037938;28;20487;-66
2023/01/07 02:47:16;;;;;;;8.40;3.67;;;11.30;80.50;;;;;;5042480;28;20470;-66
2023/01/07 02:49:47;;;;;;;11.40;5.40;;;11.30;80.60;;;;;;5042098;28;20799;-65
2023/01/07 02:52:19;;;;;;;6.93;2.83;;;11.30;80.60;;;;;;5056528;28;20568;-65
2023/01/07 02:54:51;;;;;;;5.47;2.53;;;11.30;80.60;;;;;;5041275;28;20487;-65
2023/01/07 02:57:40;;;;;;;5.97;2.20;;;11.30;80.70;;;;;;5056055;28;20560;-65
2023/01/07 03:00:19;;;;;;;7.40;1.93;;;11.30;80.70;;;;;;5053177;28;20475;-65
2023/01/07 03:03:11;;;;;;;6.10;1.97;;;11.30;80.60;;;;;;5059097;28;20549;-65
2023/01/07 03:05:51;;;;;;;4.27;1.83;;;11.20;80.70;;;;;;5040787;28;20486;-65
2023/01/07 03:08:42;;;;;;;4.70;2.17;;;11.20;80.80;;;;;;5044096;28;20485;-65
2023/01/07 03:11:12;;;;;;;4.07;1.70;;;11.20;80.90;;;;;;5039069;28;20534;-66
2023/01/07 03:13:46;;;;;;;4.10;2.13;;;11.20;80.90;;;;;;5040623;28;20443;-66
2023/01/07 03:16:20;;;;;;;4.63;1.90;;;11.20;81.00;;;;;;5056542;28;20486;-65
2023/01/07 03:18:54;;;;;;;5.63;2.30;;;11.20;81.00;;;;;;5040403;28;20463;-65
2023/01/07 03:21:26;;;;;;;3.77;1.67;;;11.20;81.00;;;;;;5042364;28;20458;-66
2023/01/07 03:23:56;;;;;;;5.00;1.63;;;11.20;81.00;;;;;;5041480;28;20451;-65
2023/01/07 03:26:30;;;;;;;8.93;2.43;;;11.20;81.00;;;;;;5040033;28;21369;-66
2023/01/07 03:29:01;;;;;;;4.37;1.70;;;11.20;81.10;;;;;;5037244;28;20544;-65
2023/01/07 03:31:31;;;;;;;5.53;1.80;;;11.20;81.00;;;;;;5038315;28;20557;-66
2023/01/07 03:34:02;;;;;;;4.00;1.57;;;11.20;81.10;;;;;;5039139;28;20462;-66
2023/01/07 03:36:35;;;;;;;4.60;1.77;;;11.30;81.10;;;;;;5041732;28;20482;-65
2023/01/07 03:39:06;;;;;;;4.27;1.90;;;11.20;81.10;;;;;;5057192;28;20470;-66
2023/01/07 03:44:19;;;;;;;4.53;1.67;;;11.30;81.20;;;;;;5040459;28;20482;-65
2023/01/07 03:46:47;;;;;;;4.50;2.13;;;11.30;81.20;;;;;;5061623;28;20560;-66
2023/01/07 03:49:15;;;;;;;8.03;1.70;;;11.30;81.20;;;;;;5042245;28;20454;-66
2023/01/07 03:51:45;;;;;;;4.27;2.00;;;11.30;81.20;;;;;;5055697;28;20467;-66
2023/01/07 03:54:13;;;;;;;8.80;2.00;;;11.30;81.20;;;;;;5041788;28;20467;-66
2023/01/07 03:56:41;;;;;;;4.83;1.80;;;11.30;81.20;;;;;;5054359;28;20482;-66
2023/01/07 03:59:09;;;;;;;5.20;2.13;;;11.30;81.30;;;;;;5040994;28;20457;-66
2023/01/07 04:01:38;;;;;;;5.30;2.07;;;11.30;81.20;;;;;;5040525;28;20446;-66
2023/01/07 04:04:06;;;;;;;4.40;1.57;;;11.30;81.20;;;;;;5056479;28;20499;-64
2023/01/07 04:06:35;;;;;;;4.60;1.53;;;11.30;81.20;;;;;;5039544;28;20828;-65
2023/01/07 04:09:04;;;;;;;7.40;1.93;;;11.30;81.20;;;;;;5038875;28;20470;-66
2023/01/07 04:11:34;;;;;;;4.13;1.70;;;11.30;81.30;;;;;;5040665;28;20538;-65
2023/01/07 04:14:02;;;;;;;4.77;1.80;;;11.30;81.30;;;;;;5039314;28;20458;-65
2023/01/07 04:16:30;;;;;;;4.03;1.70;;;11.30;81.30;;;;;;5039675;28;20842;-65
2023/01/07 04:18:59;;;;;;;3.97;1.67;;;11.30;81.30;;;;;;5039714;28;21289;-65
2023/01/07 04:21:27;;;;;;;5.43;1.50;;;11.30;81.30;;;;;;5041700;28;20459;-65
2023/01/07 04:23:55;;;;;;;11.83;7.43;;;11.30;81.30;;;;;;5055799;28;20956;-65
2023/01/07 04:26:24;;;;;;;8.63;6.30;;;11.30;81.30;;;;;;5048907;28;20466;-65
2023/01/07 04:28:52;;;;;;;8.03;5.10;;;11.30;81.30;;;;;;5056077;28;20477;-65
2023/01/07 04:31:21;;;;;;;10.70;6.63;;;11.30;81.30;;;;;;5052610;28;20466;-65
2023/01/07 04:33:49;;;;;;;13.30;8.17;;;11.30;81.30;;;;;;5040519;28;20486;-65
2023/01/07 04:36:17;;;;;;;15.27;8.30;;;11.30;81.30;;;;;;5040634;28;20487;-65
2023/01/07 04:38:45;;;;;;;10.83;8.00;;;11.30;81.30;;;;;;5053208;28;20466;-66
2023/01/07 04:41:13;;;;;;;6.83;4.20;;;11.30;81.40;;;;;;5039895;28;20550;-66
2023/01/07 04:43:43;;;;;;;7.40;3.70;;;11.30;81.30;;;;;;5060342;28;21034;-66
2023/01/07 04:46:11;;;;;;;5.00;2.47;;;11.30;81.30;;;;;;5041546;28;20880;-66
2023/01/07 04:48:39;;;;;;;5.00;2.30;;;11.30;81.30;;;;;;5043407;28;20987;-66
2023/01/07 04:51:07;;;;;;;4.40;2.00;;;11.30;81.30;;;;;;5044490;28;20463;-66
2023/01/07 04:53:35;;;;;;;3.70;1.80;;;11.30;81.30;;;;;;5044453;28;20458;-65
2023/01/07 04:56:05;;;;;;;4.67;2.00;;;11.30;81.30;;;;;;5041243;28;20509;-65
2023/01/07 04:58:33;;;;;;;6.70;1.90;;;11.30;81.30;;;;;;5059186;28;20513;-66
2023/01/07 05:01:04;;;;;;;4.80;2.10;;;11.30;81.30;;;;;;5058166;28;20459;-66
2023/01/07 05:03:34;;;;;;;3.77;1.97;;;11.30;81.30;;;;;;5043356;28;20463;-65
2023/01/07 05:06:03;;;;;;;7.53;2.80;;;11.30;81.30;;;;;;5067471;28;20482;-66
2023/01/07 05:08:32;;;;;;;4.13;2.13;;;11.30;81.30;;;;;;5059372;28;20455;-65
2023/01/07 05:11:01;;;;;;;4.13;1.80;;;11.30;81.20;;;;;;5061665;28;21383;-66
2023/01/07 05:13:30;;;;;;;4.47;2.23;;;11.30;81.30;;;;;;5061251;28;20458;-66
2023/01/07 05:15:59;;;;;;;6.77;2.27;;;11.30;81.10;;;;;;5058394;28;20479;-64
2023/01/07 05:18:29;;;;;;;4.83;1.93;;;11.30;81.20;;;;;;5068008;28;20601;-65
2023/01/07 05:20:58;;;;;;;4.83;2.47;;;11.30;81.20;;;;;;5059442;28;20459;-65
2023/01/07 05:23:26;;;;;;;3.70;1.50;;;11.30;81.20;;;;;;5059391;28;20551;-65
2023/01/07 05:25:54;;;;;;;4.13;2.00;;;11.30;81.20;;;;;;5043752;28;20475;-65
2023/01/07 05:28:22;;;;;;;7.87;2.40;;;11.30;81.20;;;;;;5058166;28;20811;-65
2023/01/07 05:30:50;;;;;;;5.70;2.40;;;11.30;81.10;;;;;;5043985;28;20457;-65
2023/01/07 05:33:18;;;;;;;5.20;2.30;;;11.30;81.20;;;;;;5043412;28;20466;-65
2023/01/07 05:35:48;;;;;;;5.30;2.17;;;11.30;81.20;;;;;;5061593;28;21158;-65
2023/01/07 05:38:18;;;;;;;3.70;1.73;;;11.30;81.20;;;;;;5062765;28;20550;-66
2023/01/07 05:40:47;;;;;;;3.90;2.00;;;11.30;81.20;;;;;;5055854;28;20492;-66
2023/01/07 05:43:20;;;;;;;3.97;1.70;;;11.30;81.20;;;;;;5056901;28;20494;-66
2023/01/07 05:45:48;;;;;;;3.93;1.73;;;11.30;81.20;;;;;;5059308;28;20590;-66
2023/01/07 05:48:16;;;;;;;4.70;2.10;;;11.30;81.20;;;;;;5043831;28;20529;-66
2023/01/07 05:50:44;;;;;;;4.17;1.80;;;11.30;81.10;;;;;;5043112;28;20454;-66
2023/01/07 05:53:14;;;;;;;4.40;1.80;;;11.30;81.10;;;;;;5041875;28;20517;-65
2023/01/07 05:55:41;;;;;;;4.80;1.80;;;11.30;81.10;;;;;;5040766;28;20541;-65
2023/01/07 05:58:10;;;;;;;4.70;1.60;;;11.30;81.00;;;;;;5041777;28;20467;-64
2023/01/07 06:00:37;;;;;;;5.07;2.10;;;11.30;80.90;;;;;;5042925;28;20455;-65
2023/01/07 06:03:05;;;;;;;3.70;1.63;;;11.30;81.00;;;;;;5043497;28;20459;-66
2023/01/07 06:05:33;;;;;;;7.13;1.63;;;11.30;81.00;;;;;;5044168;28;20485;-66
2023/01/07 06:08:01;;;;;;;4.90;1.60;;;11.30;81.00;;;;;;5043661;28;20463;-66
2023/01/07 06:10:30;;;;;;;4.20;1.93;;;11.30;81.00;;;;;;5042106;28;20463;-65
2023/01/07 06:12:58;;;;;;;3.97;1.63;;;11.30;80.90;;;;;;5042961;28;20459;-66
2023/01/07 06:15:26;;;;;;;6.10;1.40;;;11.30;80.90;;;;;;5043688;28;20532;-65
2023/01/07 06:17:54;;;;;;;4.73;2.00;;;11.30;80.90;;;;;;5042974;28;20498;-65
2023/01/07 06:20:22;;;;;;;3.90;1.57;;;11.30;80.90;;;;;;5043754;28;20513;-65
2023/01/07 06:22:50;;;;;;;3.60;1.50;;;11.40;80.90;;;;;;5041513;28;20459;-65
2023/01/07 06:25:18;;;;;;;5.03;2.03;;;11.40;80.80;;;;;;5039686;28;20529;-65
2023/01/07 06:27:47;;;;;;;5.00;1.70;;;11.40;80.80;;;;;;5040213;28;20460;-65
2023/01/07 06:30:15;;;;;;;3.90;1.60;;;11.40;80.70;;;;;;5042571;28;21045;-65
2023/01/07 06:32:44;;;;;;;3.73;1.57;;;11.30;80.70;;;;;;5043097;28;21013;-65
2023/01/07 06:35:12;;;;;;;3.70;1.40;;;11.30;80.70;;;;;;5042814;28;20485;-66
2023/01/07 06:37:40;;;;;;;3.77;1.60;;;11.30;80.70;;;;;;5040742;28;20515;-66
2023/01/07 06:40:09;;;;;;;3.63;1.50;;;11.30;80.70;;;;;;5041308;28;20475;-66
2023/01/07 06:42:37;;;;;;;3.70;1.60;;;11.30;80.60;;;;;;5042407;28;20517;-66
2023/01/07 06:45:07;;;;;;;4.43;1.60;;;11.30;80.60;;;;;;5042249;28;20509;-66
2023/01/07 06:47:35;;;;;;;4.20;1.60;;;11.30;80.60;;;;;;5042373;28;20504;-66
2023/01/07 06:50:03;;;;;;;4.97;1.60;;;11.30;80.30;;;;;;5041665;28;20462;-65
2023/01/07 06:52:30;;;;;;;3.40;1.50;;;11.30;80.50;;;;;;5041990;28;20459;-63
2023/01/07 06:54:58;;;;;;;3.33;1.27;;;11.30;80.60;;;;;;5042347;28;20992;-66
2023/01/07 06:57:26;;;;;;;4.37;1.77;;;11.30;80.60;;;;;;5041826;28;20528;-66
2023/01/07 06:59:54;;;;;;;3.90;1.57;;;11.30;80.60;;;;;;5041481;28;20580;-66
2023/01/07 07:02:25;;;;;;;5.80;1.87;;;11.30;80.50;;;;;;5041411;28;20465;-66
2023/01/07 07:04:54;;;;;;;3.70;1.50;;;11.30;80.50;;;;;;5039992;28;20506;-66
2023/01/07 07:07:22;;;;;;;9.67;6.60;;;11.30;80.50;;;;;;5042988;28;20995;-65
2023/01/07 07:09:50;;;;;;;4.70;2.80;;;11.30;80.50;;;;;;5041589;28;20520;-66
2023/01/07 07:12:19;;;;;;;5.60;3.17;;;11.30;80.50;;;;;;5042729;28;20501;-65
2023/01/07 07:14:47;;;;;;;4.97;2.63;;;11.30;80.50;;;;;;5041025;28;20490;-66
2023/01/07 07:17:15;;;;;;;4.30;1.73;;;11.30;80.30;;;;;;5044343;28;20548;-67
2023/01/07 07:19:44;;;;;;;8.90;5.67;;;11.30;80.30;;;;;;5038291;28;20872;-65
2023/01/07 07:22:12;;;;;;;28.70;16.63;;;11.30;80.20;;;;;;5039554;28;20467;-66
2023/01/07 07:24:40;;;;;;;54.83;30.20;;;11.30;80.20;;;;;;5040655;28;20528;-66
2023/01/07 07:27:08;;;;;;;118.20;57.17;;;11.30;80.30;;;;;;5044937;28;20505;-65
2023/01/07 07:29:36;;;;;;;22.63;11.80;;;11.30;80.20;;;;;;5039616;28;20512;-66
2023/01/07 07:32:04;;;;;;;29.43;17.10;;;11.30;80.20;;;;;;5042169;28;20500;-66
2023/01/07 07:34:32;;;;;;;279.77;160.67;;;11.30;80.10;;;;;;5040230;28;20502;-65
2023/01/07 07:37:04;;;;;;;110.80;58.97;;;11.30;80.10;;;;;;5041301;28;20493;-65
2023/01/07 07:39:32;;;;;;;22.50;13.37;;;11.30;80.10;;;;;;5054810;28;21077;-65
2023/01/07 07:42:02;;;;;;;28.30;16.33;;;11.30;80.10;;;;;;5041839;28;20443;-65
2023/01/07 07:44:30;;;;;;;22.80;13.57;;;11.30;80.00;;;;;;5042357;28;20531;-65
2023/01/07 07:46:58;;;;;;;21.67;12.27;;;11.30;80.00;;;;;;5043710;28;20457;-66
2023/01/07 07:49:26;;;;;;;66.17;31.97;;;11.30;80.00;;;;;;5042444;28;20472;-65
2023/01/07 07:51:54;;;;;;;22.60;11.13;;;11.30;79.90;;;;;;5039686;28;20463;-66
2023/01/07 07:54:24;;;;;;;33.20;18.40;;;11.30;79.80;;;;;;5039794;28;20475;-65
2023/01/07 07:56:52;;;;;;;7.57;3.80;;;11.30;79.90;;;;;;5041542;28;20474;-66
2023/01/07 07:59:19;;;;;;;6.20;3.23;;;11.30;79.80;;;;;;5038717;28;20458;-65
2023/01/07 08:01:48;;;;;;;4.33;2.30;;;11.20;80.00;;;;;;5041479;28;20517;-65
2023/01/07 08:04:16;;;;;;;4.33;2.00;;;11.20;80.10;;;;;;5040945;28;20515;-65
2023/01/07 08:06:44;;;;;;;8.10;4.80;;;11.20;80.00;;;;;;5040697;28;20879;-66
2023/01/07 08:09:13;;;;;;;17.23;8.00;;;11.20;79.80;;;;;;5040384;28;20470;-66
2023/01/07 08:11:42;;;;;;;12.73;7.37;;;11.20;79.80;;;;;;5039602;28;20463;-66
2023/01/07 08:14:10;;;;;;;14.13;8.40;;;11.20;79.90;;;;;;5040441;28;20469;-66
2023/01/07 08:16:38;;;;;;;8.90;4.33;;;11.10;79.80;;;;;;5042887;28;20462;-65
2023/01/07 08:19:06;;;;;;;5.00;3.20;;;11.10;79.80;;;;;;5045393;28;20471;-65
2023/01/07 08:21:34;;;;;;;4.70;2.80;;;11.10;79.90;;;;;;5044662;28;20466;-66
2023/01/07 08:24:02;;;;;;;3.60;1.63;;;11.10;79.80;;;;;;5044347;28;20464;-65
2023/01/07 08:26:29;;;;;;;3.83;1.60;;;11.00;79.80;;;;;;5044321;28;20463;-65
2023/01/07 08:28:59;;;;;;;5.80;2.63;;;11.00;79.80;;;;;;5045163;28;20494;-65
2023/01/07 08:31:27;;;;;;;7.83;2.10;;;11.00;79.90;;;;;;5045313;28;20470;-65
2023/01/07 08:33:55;;;;;;;4.67;2.13;;;11.00;80.00;;;;;;5045000;28;21016;-66
2023/01/07 08:36:24;;;;;;;6.13;1.77;;;11.00;80.00;;;;;;5046046;28;20563;-66
2023/01/07 08:38:52;;;;;;;5.43;2.20;;;11.10;79.90;;;;;;5043429;28;20470;-66
2023/01/07 08:41:20;;;;;;;4.13;1.70;;;11.10;79.90;;;;;;5043762;28;20481;-66
2023/01/07 08:43:49;;;;;;;4.20;1.90;;;11.10;79.90;;;;;;5045126;28;20459;-65
2023/01/07 08:46:18;;;;;;;3.47;1.53;;;11.10;80.00;;;;;;5043942;28;21187;-66
2023/01/07 08:48:46;;;;;;;6.60;3.50;;;11.20;80.00;;;;;;5043826;28;20460;-66
2023/01/07 08:51:14;;;;;;;6.67;2.80;;;11.20;79.90;;;;;;5044490;28;20520;-65
2023/01/07 08:53:42;;;;;;;7.70;3.90;;;11.20;79.70;;;;;;5042461;28;20828;-64
2023/01/07 08:56:10;;;;;;;17.37;5.97;;;11.20;79.70;;;;;;5041364;28;20478;-65
2023/01/07 08:58:38;;;;;;;12.43;4.73;;;11.20;79.70;;;;;;5043846;28;20560;-66
2023/01/07 09:01:07;;;;;;;14.00;5.27;;;11.20;79.60;;;;;;5042690;28;20463;-66
2023/01/07 09:03:37;;;;;;;9.67;4.47;;;11.20;79.60;;;;;;5043376;28;20492;-65
2023/01/07 09:06:06;;;;;;;10.30;6.67;;;11.20;79.60;;;;;;5044138;28;20479;-66
2023/01/07 09:08:34;;;;;;;12.93;5.33;;;11.20;79.60;;;;;;5041835;28;20479;-66
2023/01/07 09:11:02;;;;;;;8.83;4.70;;;11.20;79.60;;;;;;5043050;28;20468;-65
2023/01/07 09:13:30;;;;;;;11.27;4.77;;;11.20;79.60;;;;;;5043808;28;20540;-65
2023/01/07 09:15:58;;;;;;;12.67;4.80;;;11.20;79.40;;;;;;5044763;28;20494;-65
2023/01/07 09:18:26;;;;;;;9.37;4.40;;;11.20;79.40;;;;;;5043205;28;20528;-64
2023/01/07 09:20:56;;;;;;;11.70;6.87;;;11.20;79.40;;;;;;5044736;28;20516;-65
2023/01/07 09:23:24;;;;;;;28.60;15.50;;;11.20;79.20;;;;;;5041151;28;20467;-66
2023/01/07 09:25:52;;;;;;;29.77;15.87;;;11.20;79.10;;;;;;5040701;28;20483;-66
2023/01/07 09:28:20;;;;;;;23.50;13.87;;;11.20;79.20;;;;;;5041456;28;20493;-65
2023/01/07 09:30:48;;;;;;;12.60;7.43;;;11.20;79.20;;;;;;5043245;28;20463;-65
2023/01/07 09:33:16;;;;;;;8.50;4.53;;;11.20;79.10;;;;;;5043118;28;20451;-66
2023/01/07 09:35:44;;;;;;;6.70;3.07;;;11.30;79.00;;;;;;5040931;28;20517;-66
2023/01/07 09:38:13;;;;;;;5.30;3.20;;;11.20;79.00;;;;;;5042901;28;20521;-66
2023/01/07 09:40:43;;;;;;;6.93;3.43;;;11.20;79.00;;;;;;5043931;28;20451;-65
2023/01/07 09:43:15;;;;;;;7.37;4.50;;;11.30;79.00;;;;;;5043932;28;20520;-65
2023/01/07 09:45:47;;;;;;;5.47;3.60;;;11.30;79.00;;;;;;5043112;28;20487;-65
2023/01/07 09:48:24;;;;;;;5.77;3.03;;;11.30;78.90;;;;;;5042153;28;20542;-65
2023/01/07 09:50:57;;;;;;;5.10;3.30;;;11.40;78.90;;;;;;5042374;28;20451;-65
2023/01/07 09:53:30;;;;;;;5.60;3.03;;;11.40;78.90;;;;;;5042887;28;20467;-64
2023/01/07 09:56:00;;;;;;;5.10;2.90;;;11.50;78.80;;;;;;5042204;28;20522;-65
2023/01/07 09:58:42;;;;;;;5.50;2.93;;;11.50;78.70;;;;;;5042404;28;20554;-65
2023/01/07 10:01:22;;;;;;;6.63;3.03;;;11.50;78.60;;;;;;5040990;28;20506;-66
2023/01/07 10:03:59;;;;;;;6.63;3.50;;;11.50;78.60;;;;;;5040779;28;20479;-65
2023/01/07 10:06:38;;;;;;;5.23;2.63;;;11.50;78.50;;;;;;5041656;28;20458;-66
2023/01/07 10:09:23;;;;;;;8.17;5.13;;;11.50;78.50;;;;;;5036747;28;20877;-66
2023/01/07 10:12:01;;;;;;;5.50;3.70;;;11.50;78.40;;;;;;5043031;28;20459;-66
2023/01/07 10:14:48;;;;;;;5.67;2.83;;;11.50;78.30;;;;;;5042954;28;21277;-65
2023/01/07 10:17:29;;;;;;;6.63;3.23;;;11.60;78.30;;;;;;5041286;28;21024;-65
2023/01/07 10:20:02;;;;;;;6.40;3.37;;;11.60;78.30;;;;;;5041464;28;20486;-66
2023/01/07 10:22:35;;;;;;;4.67;2.37;;;11.60;78.30;;;;;;5041870;28;21233;-65
2023/01/07 10:25:12;;;;;;;5.33;2.60;;;11.60;78.30;;;;;;5039152;28;20478;-65
2023/01/07 10:27:43;;;;;;;4.50;2.30;;;11.60;78.20;;;;;;5041602;28;20865;-65
2023/01/07 10:30:15;;;;;;;6.90;3.33;;;11.70;78.20;;;;;;5040829;28;20528;-66
2023/01/07 10:32:45;;;;;;;6.80;2.87;;;11.70;78.00;;;;;;5037063;28;20468;-66
2023/01/07 10:35:19;;;;;;;5.10;2.60;;;11.70;78.00;;;;;;5041694;28;21606;-65
2023/01/07 10:37:47;;;;;;;5.37;3.53;;;11.70;78.00;;;;;;5042584;28;20483;-65
2023/01/07 10:40:27;;;;;;;5.30;2.90;;;11.80;77.90;;;;;;5039678;28;20491;-66
2023/01/07 10:43:00;;;;;;;7.17;3.40;;;11.80;77.90;;;;;;5042022;28;20517;-66
2023/01/07 10:46:00;;;;;;;6.67;3.50;;;11.80;77.90;;;;;;5041780;28;21103;-65
2023/01/07 10:48:48;;;;;;;7.70;3.87;;;11.80;77.70;;;;;;5042322;28;21165;-66
2023/01/07 10:51:36;;;;;;;6.13;3.37;;;11.80;77.70;;;;;;5039406;28;20956;-65
2023/01/07 10:54:16;;;;;;;4.90;2.50;;;11.80;77.60;;;;;;5038702;28;21113;-66
2023/01/07 10:56:49;;;;;;;6.33;3.60;;;11.80;77.50;;;;;;5039501;28;20470;-66
2023/01/07 10:59:20;;;;;;;6.20;3.37;;;11.70;77.30;;;;;;5040252;28;20853;-65
2023/01/07 11:01:53;;;;;;;8.40;2.67;;;11.70;77.30;;;;;;5038478;28;20516;-65
2023/01/07 11:04:21;;;;;;;7.10;3.70;;;11.70;77.30;;;;;;5038304;28;21538;-65
2023/01/07 11:06:55;;;;;;;6.50;3.53;;;11.70;77.40;;;;;;5040636;28;20543;-65
2023/01/07 11:09:29;;;;;;;6.30;3.63;;;11.70;77.40;;;;;;5042196;28;20497;-65
2023/01/07 11:12:02;;;;;;;9.40;3.73;;;11.60;77.40;;;;;;5041525;28;20447;-66
2023/01/07 11:14:34;;;;;;;7.90;3.53;;;11.60;77.20;;;;;;5041063;28;20491;-66
2023/01/07 11:17:10;;;;;;;5.10;3.00;;;11.60;77.10;;;;;;5038687;28;20620;-66
2023/01/07 11:19:44;;;;;;;5.93;2.93;;;11.60;77.00;;;;;;5040253;28;20483;-66
2023/01/07 11:22:30;;;;;;;4.70;2.50;;;11.60;76.90;;;;;;5041388;28;20920;-65
2023/01/07 11:24:59;;;;;;;4.50;1.90;;;11.60;76.70;;;;;;5040250;28;20490;-65
2023/01/07 11:27:31;;;;;;;3.90;1.93;;;11.50;76.60;;;;;;5041108;28;20474;-65
2023/01/07 11:30:02;;;;;;;4.30;1.87;;;11.50;76.60;;;;;;5043136;28;20459;-64
2023/01/07 11:32:32;;;;;;;3.80;1.57;;;11.50;76.70;;;;;;5042205;28;20459;-66
2023/01/07 11:35:02;;;;;;;4.10;1.90;;;11.50;76.60;;;;;;5041051;28;21067;-66
2023/01/07 11:37:32;;;;;;;3.93;1.70;;;11.50;76.70;;;;;;5042113;28;20447;-65
2023/01/07 11:40:02;;;;;;;5.83;1.67;;;11.50;76.60;;;;;;5042448;28;20475;-66
2023/01/07 11:42:40;;;;;;;4.00;1.70;;;11.50;76.50;;;;;;5042708;28;20454;-66
2023/01/07 11:45:13;;;;;;;4.40;1.87;;;11.50;76.40;;;;;;5041474;28;20493;-67
2023/01/07 11:47:47;;;;;;;4.70;1.60;;;11.50;76.40;;;;;;5042774;28;20808;-64
2023/01/07 11:50:28;;;;;;;5.73;2.03;;;11.50;76.30;;;;;;5042137;28;21124;-66
2023/01/07 11:52:58;;;;;;;4.20;1.70;;;11.60;76.30;;;;;;5046361;28;20805;-67
2023/01/07 11:55:27;;;;;;;4.00;1.60;;;11.60;76.30;;;;;;5046393;28;20474;-66
2023/01/07 11:57:57;;;;;;;5.37;1.80;;;11.60;76.20;;;;;;5046548;28;21016;-65
2023/01/07 12:00:45;;;;;;;4.90;2.03;;;11.60;76.10;;;;;;5045156;28;21008;-65
2023/01/07 12:03:14;;;;;;;5.33;1.80;;;11.60;76.10;;;;;;5045811;28;20495;-65
2023/01/07 12:05:44;;;;;;;4.47;1.57;;;11.60;76.10;;;;;;5044144;28;20490;-66
2023/01/07 12:08:20;;;;;;;5.20;2.33;;;11.60;76.10;;;;;;5045776;28;20469;-65
2023/01/07 12:10:55;;;;;;;7.03;2.30;;;11.60;76.00;;;;;;5046599;28;20988;-65
2023/01/07 12:13:27;;;;;;;4.17;1.83;;;11.70;75.90;;;;;;5046376;28;20859;-67
2023/01/07 12:15:58;;;;;;;4.37;1.80;;;11.60;75.50;;;;;;5046130;28;20493;-66
2023/01/07 12:18:56;;;;;;;3.80;1.73;;;11.60;75.70;;;;;;5043527;28;20938;-66
2023/01/07 12:21:41;;;;;;;4.40;1.70;;;11.60;75.70;;;;;;5043201;28;20529;-66
2023/01/07 12:24:26;;;;;;;3.97;1.63;;;11.60;75.70;;;;;;5045199;28;20470;-65
2023/01/07 12:27:03;;;;;;;3.57;1.53;;;11.60;75.70;;;;;;5046368;28;20512;-66
2023/01/07 12:29:40;;;;;;;3.40;1.37;;;11.60;75.70;;;;;;5046408;28;20438;-64
2023/01/07 12:32:22;;;;;;;4.73;1.53;;;11.60;75.50;;;;;;5045236;28;20451;-64
2023/01/07 12:34:54;;;;;;;6.30;1.80;;;11.60;75.60;;;;;;5043439;28;20992;-64
2023/01/07 12:37:31;;;;;;;3.40;1.50;;;11.70;75.70;;;;;;5043619;28;20463;-65
2023/01/07 12:40:16;;;;;;;4.33;1.77;;;11.70;75.90;;;;;;5043880;28;20995;-66
2023/01/07 12:42:50;;;;;;;3.50;1.53;;;11.80;75.90;;;;;;5044551;28;20454;-65
2023/01/07 12:45:25;;;;;;;4.10;1.60;;;11.90;76.00;;;;;;5042908;28;20486;-65
2023/01/07 12:48:01;;;;;;;27.07;5.43;;;12.00;76.00;;;;;;5042528;28;21033;-64
2023/01/07 12:50:33;;;;;;;58.63;25.50;;;12.10;76.10;;;;;;5043579;28;20454;-66
2023/01/07 12:53:12;;;;;;;29.03;18.37;;;12.20;76.10;;;;;;5041508;28;20549;-64
2023/01/07 12:55:44;;;;;;;8.27;4.20;;;12.30;75.90;;;;;;5045612;28;20483;-63
2023/01/07 12:58:18;;;;;;;5.87;2.93;;;12.40;75.70;;;;;;5042927;28;20470;-66
2023/01/07 13:00:55;;;;;;;5.10;2.10;;;12.40;75.40;;;;;;5044297;28;20474;-64
2023/01/07 13:03:33;;;;;;;4.53;1.33;;;12.40;75.30;;;;;;5045702;28;20459;-64
2023/01/07 13:06:06;;;;;;;3.97;1.80;;;12.40;75.30;;;;;;5043209;28;20490;-65
2023/01/07 13:08:41;;;;;;;3.83;1.70;;;12.40;74.90;;;;;;5043298;28;20463;-64
2023/01/07 13:11:18;;;;;;;5.20;2.00;;;12.40;74.70;;;;;;5043789;28;21029;-64